Time;durP1;ratioP1;P1;durP2;ratioP2;P2;SDS_P1;SDS_P2;PMS_P1;PMS_P2;Temp;Humidity;BMP_temperature;BMP_pressure;BME280_temperature;BME280_humidity;BME280_pressure;Samples;Min_cycle;Max_cycle;Signal;HPM_P1;HPM_P2
2021/05/30 00:01:27;;;;;;;13.88;3.80;;;;;;;;;;4954746;29;20473;-42
2021/05/30 00:03:54;;;;;;;22.98;4.28;;;;;;;;;;4944249;29;20111;-45
2021/05/30 00:06:21;;;;;;;20.23;4.28;;;;;;;;;;4953889;28;20086;-51
2021/05/30 00:08:49;;;;;;;25.23;4.85;;;;;;;;;;4955943;29;20379;-51
2021/05/30 00:11:16;;;;;;;27.25;4.43;;;;;;;;;;4955366;29;20391;-52
2021/05/30 00:13:45;;;;;;;21.63;4.47;;;;;;;;;;4936233;29;20138;-44
2021/05/30 00:16:12;;;;;;;20.27;4.32;;;;;;;;;;4954300;28;20391;-42
2021/05/30 00:18:39;;;;;;;20.73;4.38;;;;;;;;;;4954668;29;20015;-44
2021/05/30 00:21:07;;;;;;;24.05;4.95;;;;;;;;;;4954748;29;20031;-46
2021/05/30 00:23:34;;;;;;;22.33;4.45;;;;;;;;;;4955198;29;20047;-57
2021/05/30 00:26:01;;;;;;;19.92;4.47;;;;;;;;;;4948725;28;20043;-46
2021/05/30 00:28:28;;;;;;;30.25;4.45;;;;;;;;;;4948111;29;20065;-47
2021/05/30 00:30:55;;;;;;;19.55;4.80;;;;;;;;;;4954775;29;20031;-46
2021/05/30 00:33:22;;;;;;;17.63;4.22;;;;;;;;;;4954865;29;20016;-45
2021/05/30 00:35:50;;;;;;;26.02;4.78;;;;;;;;;;4950057;29;20066;-46
2021/05/30 00:38:17;;;;;;;21.00;5.10;;;;;;;;;;4954649;29;20023;-43
2021/05/30 00:40:44;;;;;;;20.38;5.15;;;;;;;;;;4954563;29;20384;-46
2021/05/30 00:43:12;;;;;;;22.25;4.45;;;;;;;;;;4936751;29;20062;-42
2021/05/30 00:45:40;;;;;;;22.58;5.22;;;;;;;;;;4951062;28;20618;-46
2021/05/30 00:48:07;;;;;;;19.85;4.40;;;;;;;;;;4953278;29;20050;-44
2021/05/30 00:50:34;;;;;;;21.25;4.90;;;;;;;;;;4955204;29;20105;-50
2021/05/30 00:53:02;;;;;;;23.48;4.35;;;;;;;;;;4952864;28;20519;-43
2021/05/30 00:55:29;;;;;;;13.40;3.80;;;;;;;;;;4951042;28;20062;-47
2021/05/30 00:57:56;;;;;;;18.63;4.75;;;;;;;;;;4955010;28;20166;-49
2021/05/30 01:00:23;;;;;;;17.67;4.30;;;;;;;;;;4955088;29;20102;-50
2021/05/30 01:02:51;;;;;;;15.40;4.30;;;;;;;;;;4954983;29;20023;-45
2021/05/30 01:05:18;;;;;;;19.08;4.45;;;;;;;;;;4953417;28;20078;-43
2021/05/30 01:07:48;;;;;;;18.60;4.95;;;;;;;;;;4954656;28;20015;-41
2021/05/30 01:10:15;;;;;;;17.70;4.07;;;;;;;;;;4955312;29;20027;-46
2021/05/30 01:12:43;;;;;;;20.60;4.40;;;;;;;;;;4954831;28;20055;-47
2021/05/30 01:15:11;;;;;;;18.15;3.97;;;;;;;;;;4937233;29;20045;-47
2021/05/30 01:17:38;;;;;;;21.33;4.57;;;;;;;;;;4959887;28;20019;-49
2021/05/30 01:20:07;;;;;;;11.40;3.55;;;;;;;;;;4955008;29;20031;-45
2021/05/30 01:22:35;;;;;;;13.70;3.63;;;;;;;;;;4954558;29;20030;-45
2021/05/30 01:25:03;;;;;;;12.25;3.72;;;;;;;;;;4954322;28;20114;-46
2021/05/30 01:27:30;;;;;;;16.13;3.83;;;;;;;;;;4955840;28;20458;-49
2021/05/30 01:29:57;;;;;;;17.50;3.83;;;;;;;;;;4954782;29;20483;-45
2021/05/30 01:32:24;;;;;;;16.08;3.33;;;;;;;;;;4954692;29;20074;-46
2021/05/30 01:34:51;;;;;;;18.65;3.42;;;;;;;;;;4954412;28;20612;-48
2021/05/30 01:37:18;;;;;;;13.90;3.40;;;;;;;;;;4950834;28;20471;-46
2021/05/30 01:39:45;;;;;;;13.43;3.35;;;;;;;;;;4940999;29;20046;-47
2021/05/30 01:42:13;;;;;;;13.05;3.60;;;;;;;;;;4954349;28;20034;-46
2021/05/30 01:44:40;;;;;;;16.83;3.38;;;;;;;;;;4953500;29;20027;-46
2021/05/30 01:47:07;;;;;;;9.98;2.70;;;;;;;;;;4943471;29;20117;-49
2021/05/30 01:49:35;;;;;;;14.43;3.30;;;;;;;;;;4936508;29;20046;-47
2021/05/30 01:52:04;;;;;;;12.40;2.90;;;;;;;;;;4945592;29;20038;-49
2021/05/30 01:54:31;;;;;;;13.43;3.38;;;;;;;;;;4948543;29;20057;-48
2021/05/30 01:56:59;;;;;;;10.65;2.95;;;;;;;;;;4954263;29;20031;-49
2021/05/30 01:59:26;;;;;;;12.73;3.65;;;;;;;;;;4953462;29;20129;-43
2021/05/30 02:01:58;;;;;;;16.33;3.28;;;;;;;;;;4944940;29;20066;-49
2021/05/30 02:04:29;;;;;;;14.32;2.90;;;;;;;;;;4942715;29;20027;-50
2021/05/30 02:06:56;;;;;;;11.88;2.92;;;;;;;;;;4935176;29;20028;-50
2021/05/30 02:09:23;;;;;;;14.73;3.00;;;;;;;;;;4934890;29;20041;-48
2021/05/30 02:11:50;;;;;;;14.10;3.22;;;;;;;;;;4934975;29;20020;-54
2021/05/30 02:14:19;;;;;;;14.05;3.22;;;;;;;;;;4930982;29;20039;-53
2021/05/30 02:16:47;;;;;;;14.77;2.83;;;;;;;;;;4951573;28;20083;-48
2021/05/30 02:19:14;;;;;;;18.15;2.70;;;;;;;;;;4952734;28;20150;-41
2021/05/30 02:21:46;;;;;;;10.95;2.50;;;;;;;;;;4956076;28;20090;-48
2021/05/30 02:24:13;;;;;;;11.77;3.07;;;;;;;;;;4950580;28;20486;-47
2021/05/30 02:26:41;;;;;;;10.13;3.25;;;;;;;;;;4952063;28;20495;-42
2021/05/30 02:29:09;;;;;;;10.93;2.72;;;;;;;;;;4950705;29;20034;-46
2021/05/30 02:31:36;;;;;;;11.52;2.83;;;;;;;;;;4952687;28;20241;-50
2021/05/30 02:34:03;;;;;;;10.73;2.40;;;;;;;;;;4935810;29;20029;-43
2021/05/30 02:36:30;;;;;;;11.43;2.42;;;;;;;;;;4950563;28;20027;-49
2021/05/30 02:38:57;;;;;;;10.32;2.80;;;;;;;;;;4956453;29;20038;-49
2021/05/30 02:41:25;;;;;;;12.68;3.13;;;;;;;;;;4956803;29;20087;-43
2021/05/30 02:43:52;;;;;;;11.80;2.25;;;;;;;;;;4956833;29;20546;-46
2021/05/30 02:46:19;;;;;;;15.63;2.50;;;;;;;;;;4956332;29;20039;-47
2021/05/30 02:48:46;;;;;;;12.48;2.65;;;;;;;;;;4956592;29;20029;-47
2021/05/30 02:51:13;;;;;;;15.90;3.28;;;;;;;;;;4952646;28;20027;-45
2021/05/30 02:53:41;;;;;;;15.45;2.17;;;;;;;;;;4955825;29;20700;-48
2021/05/30 02:56:08;;;;;;;9.27;2.55;;;;;;;;;;4954838;29;20068;-45
2021/05/30 02:58:35;;;;;;;9.43;2.80;;;;;;;;;;4953595;29;20058;-48
2021/05/30 03:01:02;;;;;;;8.35;2.72;;;;;;;;;;4956760;29;20082;-48
2021/05/30 03:03:29;;;;;;;11.68;2.72;;;;;;;;;;4956155;29;20047;-50
2021/05/30 03:05:56;;;;;;;11.18;2.50;;;;;;;;;;4956048;29;20039;-49
2021/05/30 03:08:23;;;;;;;14.23;2.40;;;;;;;;;;4959563;28;20582;-49
2021/05/30 03:10:51;;;;;;;8.18;2.35;;;;;;;;;;4975418;28;20058;-47
2021/05/30 03:13:18;;;;;;;6.20;1.98;;;;;;;;;;4975965;28;20034;-49
2021/05/30 03:15:45;;;;;;;9.07;2.15;;;;;;;;;;4975533;28;20031;-45
2021/05/30 03:18:12;;;;;;;8.70;2.45;;;;;;;;;;4969240;28;20034;-47
2021/05/30 03:20:39;;;;;;;12.13;2.30;;;;;;;;;;4958786;28;20038;-46
2021/05/30 03:23:08;;;;;;;8.23;2.33;;;;;;;;;;4975957;28;20036;-45
2021/05/30 03:25:36;;;;;;;13.15;2.25;;;;;;;;;;4975916;28;20034;-47
2021/05/30 03:28:04;;;;;;;9.10;2.20;;;;;;;;;;4968927;28;20019;-47
2021/05/30 03:30:31;;;;;;;8.30;1.77;;;;;;;;;;4976256;28;20360;-45
2021/05/30 03:32:58;;;;;;;7.68;2.05;;;;;;;;;;4976218;28;20030;-48
2021/05/30 03:35:25;;;;;;;7.38;1.77;;;;;;;;;;4975555;28;20085;-45
2021/05/30 03:37:52;;;;;;;7.75;1.80;;;;;;;;;;4949653;28;20680;-46
2021/05/30 03:42:53;;;;;;;9.80;2.10;;;;;;;;;;4956875;28;20031;-48
2021/05/30 03:45:21;;;;;;;7.57;1.90;;;;;;;;;;4955914;29;20035;-49
2021/05/30 03:47:48;;;;;;;6.95;2.00;;;;;;;;;;4951473;28;20130;-43
2021/05/30 03:50:15;;;;;;;6.00;2.08;;;;;;;;;;4937203;29;20055;-49
2021/05/30 03:52:43;;;;;;;8.15;1.52;;;;;;;;;;4947885;28;20023;-48
2021/05/30 03:55:10;;;;;;;9.40;2.13;;;;;;;;;;4955864;29;20031;-48
2021/05/30 03:57:37;;;;;;;7.25;2.03;;;;;;;;;;4954527;29;20026;-42
2021/05/30 04:00:09;;;;;;;5.10;1.75;;;;;;;;;;4956181;28;20079;-46
2021/05/30 04:02:36;;;;;;;9.30;1.85;;;;;;;;;;4956925;29;20019;-46
2021/05/30 04:05:03;;;;;;;9.13;1.88;;;;;;;;;;4955914;29;20028;-48
2021/05/30 04:07:30;;;;;;;7.78;2.08;;;;;;;;;;4956277;29;20027;-46
2021/05/30 04:10:02;;;;;;;7.88;1.63;;;;;;;;;;4960840;28;20058;-46
2021/05/30 04:12:30;;;;;;;7.15;1.70;;;;;;;;;;4956516;29;20055;-45
2021/05/30 04:14:57;;;;;;;7.68;1.60;;;;;;;;;;4956003;29;20027;-47
2021/05/30 04:17:24;;;;;;;5.00;1.50;;;;;;;;;;4956116;29;20025;-46
2021/05/30 04:19:51;;;;;;;6.80;1.70;;;;;;;;;;4962364;28;20027;-46
2021/05/30 04:22:18;;;;;;;6.72;1.48;;;;;;;;;;4975732;28;20171;-47
2021/05/30 04:24:45;;;;;;;10.00;2.15;;;;;;;;;;4975375;28;20578;-46
2021/05/30 04:27:12;;;;;;;5.03;1.50;;;;;;;;;;4967564;28;20664;-49
2021/05/30 04:29:39;;;;;;;5.22;1.80;;;;;;;;;;4955844;29;20424;-48
2021/05/30 04:32:06;;;;;;;8.98;1.60;;;;;;;;;;4945727;29;20113;-47
2021/05/30 04:34:33;;;;;;;6.00;1.65;;;;;;;;;;4955960;29;20026;-49
2021/05/30 04:37:00;;;;;;;4.25;1.27;;;;;;;;;;4955840;29;20387;-49
2021/05/30 04:39:31;;;;;;;6.57;1.60;;;;;;;;;;4955885;29;20019;-46
2021/05/30 04:41:59;;;;;;;5.72;1.52;;;;;;;;;;4963176;28;20106;-48
2021/05/30 04:44:26;;;;;;;6.18;1.60;;;;;;;;;;4975074;28;20019;-47
2021/05/30 04:46:53;;;;;;;5.75;1.60;;;;;;;;;;4974674;28;20434;-48
2021/05/30 04:49:20;;;;;;;5.90;1.95;;;;;;;;;;4975009;28;20057;-47
2021/05/30 04:51:47;;;;;;;5.85;1.80;;;;;;;;;;4959624;28;20498;-46
2021/05/30 04:54:14;;;;;;;6.00;1.30;;;;;;;;;;4955626;29;20055;-45
2021/05/30 04:56:41;;;;;;;5.82;1.30;;;;;;;;;;4955600;29;20026;-47
2021/05/30 04:59:08;;;;;;;4.13;1.35;;;;;;;;;;4955225;28;20028;-49
2021/05/30 05:01:35;;;;;;;4.63;1.33;;;;;;;;;;4951882;28;20079;-49
2021/05/30 05:04:03;;;;;;;7.18;1.35;;;;;;;;;;4974963;28;20483;-47
2021/05/30 05:06:30;;;;;;;6.30;1.45;;;;;;;;;;4974652;28;20426;-49
2021/05/30 05:08:57;;;;;;;3.63;1.10;;;;;;;;;;4974591;28;20053;-46
2021/05/30 05:11:24;;;;;;;5.13;1.35;;;;;;;;;;4968299;28;20035;-49
2021/05/30 05:13:51;;;;;;;4.80;1.13;;;;;;;;;;4974548;28;20027;-47
2021/05/30 05:16:18;;;;;;;4.10;1.35;;;;;;;;;;4974354;28;20123;-46
2021/05/30 05:18:45;;;;;;;5.40;1.63;;;;;;;;;;4974437;28;20106;-47
2021/05/30 05:21:12;;;;;;;4.32;1.23;;;;;;;;;;4971327;28;20019;-41
2021/05/30 05:23:39;;;;;;;4.47;1.27;;;;;;;;;;4953513;28;20110;-47
2021/05/30 05:26:06;;;;;;;2.60;1.23;;;;;;;;;;4955350;29;20043;-45
2021/05/30 05:28:34;;;;;;;3.03;1.13;;;;;;;;;;4954803;29;20019;-47
2021/05/30 05:31:02;;;;;;;3.80;1.10;;;;;;;;;;4954662;29;20054;-46
2021/05/30 05:33:29;;;;;;;2.80;1.08;;;;;;;;;;4952387;28;20030;-47
2021/05/30 05:35:56;;;;;;;5.40;1.52;;;;;;;;;;4954983;29;20408;-45
2021/05/30 05:38:23;;;;;;;2.70;0.93;;;;;;;;;;4954646;29;20123;-47
2021/05/30 05:40:50;;;;;;;5.07;1.02;;;;;;;;;;4954834;29;20050;-48
2021/05/30 05:43:17;;;;;;;4.82;1.80;;;;;;;;;;4962559;28;20034;-46
2021/05/30 05:45:44;;;;;;;3.03;1.10;;;;;;;;;;4973865;28;20030;-48
2021/05/30 05:48:12;;;;;;;4.38;1.30;;;;;;;;;;4973673;28;20035;-47
2021/05/30 05:50:40;;;;;;;4.63;1.20;;;;;;;;;;4973580;28;20101;-45
2021/05/30 05:53:07;;;;;;;3.47;0.98;;;;;;;;;;4966682;28;20041;-47
2021/05/30 05:55:34;;;;;;;4.40;1.23;;;;;;;;;;4956753;28;20026;-46
2021/05/30 05:58:02;;;;;;;3.15;0.95;;;;;;;;;;4973727;28;20098;-48
2021/05/30 06:00:29;;;;;;;4.80;1.08;;;;;;;;;;4973536;28;20030;-49
2021/05/30 06:02:56;;;;;;;2.10;1.00;;;;;;;;;;4962654;28;20386;-46
2021/05/30 06:05:24;;;;;;;3.47;1.23;;;;;;;;;;4954416;29;20034;-46
2021/05/30 06:07:52;;;;;;;2.70;0.82;;;;;;;;;;4937108;29;20391;-46
2021/05/30 06:10:29;;;;;;;2.65;1.00;;;;;;;;;;4954071;29;20360;-45
2021/05/30 06:12:57;;;;;;;4.82;0.80;;;;;;;;;;4950855;28;20768;-49
2021/05/30 06:15:24;;;;;;;3.58;0.90;;;;;;;;;;4954336;29;20030;-47
2021/05/30 06:18:14;;;;;;;4.75;0.80;;;;;;;;;;4954196;29;20023;-47
2021/05/30 06:20:40;;;;;;;4.05;1.00;;;;;;;;;;4953294;29;20518;-46
2021/05/30 06:23:08;;;;;;;3.55;1.30;;;;;;;;;;4952968;28;20081;-46
2021/05/30 06:25:35;;;;;;;2.80;1.23;;;;;;;;;;4973542;28;20030;-44
2021/05/30 06:28:02;;;;;;;2.40;0.95;;;;;;;;;;4973532;28;20029;-46
2021/05/30 06:30:32;;;;;;;2.22;0.90;;;;;;;;;;4973248;28;20110;-46
2021/05/30 06:32:59;;;;;;;3.17;1.05;;;;;;;;;;4969082;28;20038;-47
2021/05/30 06:35:29;;;;;;;2.88;1.13;;;;;;;;;;4971330;28;20044;-47
2021/05/30 06:37:56;;;;;;;2.60;0.90;;;;;;;;;;4973285;28;20487;-48
2021/05/30 06:40:23;;;;;;;3.33;0.90;;;;;;;;;;4973241;28;20031;-45
2021/05/30 06:42:50;;;;;;;2.45;0.93;;;;;;;;;;4972908;28;20023;-45
2021/05/30 06:45:17;;;;;;;2.03;0.75;;;;;;;;;;4952617;28;20086;-48
2021/05/30 06:47:44;;;;;;;2.85;0.93;;;;;;;;;;4953959;29;20054;-46
2021/05/30 06:50:12;;;;;;;2.25;0.93;;;;;;;;;;4953826;29;20050;-46
2021/05/30 06:52:39;;;;;;;5.72;1.25;;;;;;;;;;4953662;29;20086;-47
2021/05/30 06:55:06;;;;;;;3.38;0.98;;;;;;;;;;4941892;29;20106;-48
2021/05/30 06:57:33;;;;;;;3.28;0.90;;;;;;;;;;4971076;28;20027;-48
2021/05/30 07:00:00;;;;;;;2.33;0.90;;;;;;;;;;4973070;28;20023;-48
2021/05/30 07:02:27;;;;;;;4.15;0.88;;;;;;;;;;4973205;28;20023;-45
2021/05/30 07:04:54;;;;;;;2.08;0.70;;;;;;;;;;4956505;28;20082;-48
2021/05/30 07:07:21;;;;;;;1.90;0.90;;;;;;;;;;4953920;29;20356;-47
2021/05/30 07:09:48;;;;;;;3.33;0.80;;;;;;;;;;4953605;29;20019;-47
2021/05/30 07:12:15;;;;;;;2.63;0.88;;;;;;;;;;4953506;29;20155;-48
2021/05/30 07:14:42;;;;;;;2.47;0.80;;;;;;;;;;4951095;28;20023;-48
2021/05/30 07:17:09;;;;;;;1.92;0.77;;;;;;;;;;4973345;28;20112;-47
2021/05/30 07:19:36;;;;;;;2.03;0.60;;;;;;;;;;4972793;28;20023;-48
2021/05/30 07:22:03;;;;;;;1.85;0.70;;;;;;;;;;4972926;28;20051;-47
2021/05/30 07:24:30;;;;;;;2.88;0.90;;;;;;;;;;4967619;28;20114;-47
2021/05/30 07:26:57;;;;;;;3.63;0.80;;;;;;;;;;4957372;29;20483;-47
2021/05/30 07:29:24;;;;;;;2.53;0.80;;;;;;;;;;4957204;29;20110;-47
2021/05/30 07:31:51;;;;;;;1.67;0.80;;;;;;;;;;4957008;29;20038;-48
2021/05/30 07:34:18;;;;;;;2.72;0.70;;;;;;;;;;4954753;29;20098;-49
2021/05/30 07:36:45;;;;;;;3.45;0.70;;;;;;;;;;4955038;29;20063;-49
2021/05/30 07:39:12;;;;;;;2.20;0.80;;;;;;;;;;4957147;29;20030;-50
2021/05/30 07:41:39;;;;;;;2.63;0.65;;;;;;;;;;4956821;29;20518;-48
2021/05/30 07:44:07;;;;;;;2.40;1.15;;;;;;;;;;4956530;28;20506;-46
2021/05/30 07:46:34;;;;;;;2.20;0.70;;;;;;;;;;4967453;28;20050;-47
2021/05/30 07:49:01;;;;;;;1.30;0.47;;;;;;;;;;4976209;28;20019;-48
2021/05/30 07:51:28;;;;;;;2.03;0.60;;;;;;;;;;4975672;28;20030;-47
2021/05/30 07:53:55;;;;;;;3.80;0.57;;;;;;;;;;4975510;28;20078;-42
2021/05/30 07:56:22;;;;;;;1.45;0.70;;;;;;;;;;4959392;28;20110;-46
2021/05/30 07:58:49;;;;;;;1.80;0.70;;;;;;;;;;4956632;29;20384;-48
2021/05/30 08:01:16;;;;;;;2.00;0.63;;;;;;;;;;4956578;29;20023;-46
2021/05/30 08:03:43;;;;;;;3.28;0.80;;;;;;;;;;4956260;29;20059;-47
2021/05/30 08:06:10;;;;;;;2.70;0.82;;;;;;;;;;4957913;28;20035;-49
2021/05/30 08:08:40;;;;;;;1.35;0.63;;;;;;;;;;4958606;28;20027;-49
2021/05/30 08:11:07;;;;;;;2.20;0.60;;;;;;;;;;4975568;28;20030;-46
2021/05/30 08:13:34;;;;;;;1.15;0.60;;;;;;;;;;4975353;28;20031;-47
2021/05/30 08:16:01;;;;;;;2.90;0.60;;;;;;;;;;4964308;28;20051;-47
2021/05/30 08:18:28;;;;;;;2.28;0.60;;;;;;;;;;4956579;29;20035;-45
2021/05/30 08:20:55;;;;;;;1.13;0.70;;;;;;;;;;4956183;29;20020;-48
2021/05/30 08:23:22;;;;;;;1.40;0.50;;;;;;;;;;4955795;29;20439;-45
2021/05/30 08:25:49;;;;;;;1.50;0.70;;;;;;;;;;4951992;29;20412;-45
2021/05/30 08:28:16;;;;;;;1.48;0.70;;;;;;;;;;4970828;28;20046;-48
2021/05/30 08:30:43;;;;;;;1.88;0.68;;;;;;;;;;4975379;28;20027;-48
2021/05/30 08:33:10;;;;;;;1.58;0.50;;;;;;;;;;4975239;28;20034;-48
2021/05/30 08:35:37;;;;;;;2.10;0.60;;;;;;;;;;4972348;28;20031;-43
2021/05/30 08:38:04;;;;;;;3.05;0.50;;;;;;;;;;4971136;28;20026;-49
2021/05/30 08:40:32;;;;;;;2.45;0.70;;;;;;;;;;4975306;28;20077;-48
2021/05/30 08:42:59;;;;;;;1.77;0.60;;;;;;;;;;4974852;28;20031;-47
2021/05/30 08:45:26;;;;;;;1.90;0.70;;;;;;;;;;4974892;28;20034;-47
2021/05/30 08:47:54;;;;;;;3.28;0.70;;;;;;;;;;4967909;28;20081;-45
2021/05/30 08:50:22;;;;;;;2.20;0.70;;;;;;;;;;4957482;28;20114;-47
2021/05/30 08:52:49;;;;;;;1.70;0.50;;;;;;;;;;4974805;28;20030;-47
2021/05/30 08:55:16;;;;;;;2.17;0.70;;;;;;;;;;4974760;28;20026;-47
2021/05/30 08:57:43;;;;;;;1.40;0.50;;;;;;;;;;4957651;28;20709;-46
2021/05/30 09:00:11;;;;;;;0.88;0.52;;;;;;;;;;4955522;29;20504;-45
2021/05/30 09:02:39;;;;;;;1.15;0.57;;;;;;;;;;4955657;29;20491;-43
2021/05/30 09:05:11;;;;;;;3.53;0.60;;;;;;;;;;4955084;29;20399;-44
2021/05/30 09:07:39;;;;;;;1.27;0.70;;;;;;;;;;4952659;28;20070;-47
2021/05/30 09:10:08;;;;;;;2.05;0.70;;;;;;;;;;4937961;29;20404;-47
2021/05/30 09:12:39;;;;;;;1.95;0.70;;;;;;;;;;4955523;29;20031;-48
2021/05/30 09:15:15;;;;;;;0.98;0.57;;;;;;;;;;4954980;29;20034;-48
2021/05/30 09:17:42;;;;;;;1.15;0.60;;;;;;;;;;4950449;29;20023;-46
2021/05/30 09:20:10;;;;;;;1.70;0.68;;;;;;;;;;4955046;29;20027;-47
2021/05/30 09:22:42;;;;;;;1.23;0.50;;;;;;;;;;4955079;29;20043;-46
2021/05/30 09:25:09;;;;;;;;;;;;;;;;;;4955147;29;20098;-47
2021/05/30 09:27:47;;;;;;;1.42;0.60;;;;;;;;;;4950392;29;19914;-46
2021/05/30 09:30:14;;;;;;;2.22;0.95;;;;;;;;;;4954939;29;20100;-47
2021/05/30 09:33:01;;;;;;;2.00;0.75;;;;;;;;;;4955019;29;20034;-47
2021/05/30 09:35:32;;;;;;;2.17;0.55;;;;;;;;;;4954595;29;20035;-46
2021/05/30 09:38:00;;;;;;;1.55;0.60;;;;;;;;;;4950093;29;20090;-47
2021/05/30 09:40:39;;;;;;;1.00;0.50;;;;;;;;;;4954689;29;20509;-46
2021/05/30 09:43:08;;;;;;;1.45;0.70;;;;;;;;;;4954313;28;20046;-47
2021/05/30 09:45:36;;;;;;;0.85;0.57;;;;;;;;;;4954460;28;20039;-46
2021/05/30 09:48:04;;;;;;;1.45;0.60;;;;;;;;;;4951596;28;20055;-48
2021/05/30 09:50:34;;;;;;;0.98;0.40;;;;;;;;;;4954479;29;20023;-46
2021/05/30 09:53:02;;;;;;;1.55;0.63;;;;;;;;;;4954685;29;20023;-46
2021/05/30 09:55:33;;;;;;;0.80;0.50;;;;;;;;;;4954555;29;20023;-51
2021/05/30 09:58:19;;;;;;;1.08;0.55;;;;;;;;;;4950064;29;20031;-45
2021/05/30 10:00:52;;;;;;;2.33;0.73;;;;;;;;;;4935255;29;20067;-46
2021/05/30 10:03:22;;;;;;;1.77;0.57;;;;;;;;;;4935197;29;20066;-47
2021/05/30 10:05:49;;;;;;;1.08;0.47;;;;;;;;;;4935228;29;20039;-47
2021/05/30 10:08:17;;;;;;;1.65;0.60;;;;;;;;;;4935718;29;20043;-45
2021/05/30 10:10:45;;;;;;;1.10;0.40;;;;;;;;;;4972420;28;20471;-49
2021/05/30 10:13:12;;;;;;;1.08;0.40;;;;;;;;;;4973413;28;20022;-48
2021/05/30 10:15:39;;;;;;;2.90;0.47;;;;;;;;;;4973327;28;20050;-47
2021/05/30 10:18:12;;;;;;;1.48;0.43;;;;;;;;;;4971416;28;20038;-47
2021/05/30 10:20:40;;;;;;;1.05;0.50;;;;;;;;;;4969776;28;20038;-48
2021/05/30 10:23:08;;;;;;;1.88;0.60;;;;;;;;;;4973209;28;20115;-48
2021/05/30 10:25:36;;;;;;;0.95;0.55;;;;;;;;;;4972952;28;20026;-49
2021/05/30 10:28:13;;;;;;;2.28;0.50;;;;;;;;;;4973281;28;20483;-48
2021/05/30 10:30:41;;;;;;;1.20;0.50;;;;;;;;;;4960726;28;20053;-50
2021/05/30 10:33:13;;;;;;;1.65;0.60;;;;;;;;;;4973107;28;20034;-47
2021/05/30 10:35:41;;;;;;;1.67;0.60;;;;;;;;;;4973203;28;20558;-48
2021/05/30 10:38:08;;;;;;;2.03;0.50;;;;;;;;;;4973264;28;20030;-44
2021/05/30 10:40:40;;;;;;;1.00;0.47;;;;;;;;;;4951849;28;20035;-46
2021/05/30 10:43:10;;;;;;;0.50;0.40;;;;;;;;;;4953768;28;20551;-49
2021/05/30 10:45:56;;;;;;;1.65;0.47;;;;;;;;;;4953912;29;20039;-47
2021/05/30 10:48:23;;;;;;;1.13;0.52;;;;;;;;;;4953906;29;20123;-48
2021/05/30 10:51:11;;;;;;;0.88;0.40;;;;;;;;;;4960904;28;20105;-47
2021/05/30 10:53:42;;;;;;;0.93;0.45;;;;;;;;;;4955844;28;20426;-45
2021/05/30 10:56:19;;;;;;;1.20;0.45;;;;;;;;;;4973487;28;20110;-47
2021/05/30 10:59:05;;;;;;;1.08;0.50;;;;;;;;;;4975134;28;20027;-47
2021/05/30 11:01:43;;;;;;;1.38;0.60;;;;;;;;;;4956642;28;20023;-48
2021/05/30 11:04:26;;;;;;;0.82;0.47;;;;;;;;;;4957463;29;20032;-47
2021/05/30 11:06:54;;;;;;;1.30;0.70;;;;;;;;;;4957318;29;20078;-48
2021/05/30 11:09:21;;;;;;;1.45;0.50;;;;;;;;;;4955841;29;20023;-49
2021/05/30 11:12:14;;;;;;;1.30;0.60;;;;;;;;;;4954944;29;20032;-47
2021/05/30 11:15:00;;;;;;;0.90;0.40;;;;;;;;;;4957625;29;20027;-48
2021/05/30 11:17:37;;;;;;;1.27;0.50;;;;;;;;;;4957399;29;20020;-49
2021/05/30 11:20:05;;;;;;;0.50;0.40;;;;;;;;;;4952912;29;20476;-47
2021/05/30 11:22:50;;;;;;;0.75;0.43;;;;;;;;;;4957231;29;20035;-46
2021/05/30 11:25:19;;;;;;;3.38;0.52;;;;;;;;;;4939863;29;20044;-48
2021/05/30 11:27:50;;;;;;;1.10;0.50;;;;;;;;;;4956903;29;20035;-49
2021/05/30 11:30:37;;;;;;;1.10;0.50;;;;;;;;;;4952409;29;20035;-46
2021/05/30 11:33:04;;;;;;;2.40;0.50;;;;;;;;;;4956727;29;20050;-44
2021/05/30 11:35:32;;;;;;;1.42;0.40;;;;;;;;;;4957431;29;20020;-47
2021/05/30 11:37:59;;;;;;;0.50;0.30;;;;;;;;;;4956995;29;20042;-48
2021/05/30 11:40:26;;;;;;;0.80;0.47;;;;;;;;;;4953891;29;20114;-45
2021/05/30 11:42:54;;;;;;;2.03;0.55;;;;;;;;;;4955664;28;20440;-48
2021/05/30 11:45:41;;;;;;;2.78;0.68;;;;;;;;;;4956825;29;20134;-46
2021/05/30 11:48:13;;;;;;;1.25;0.40;;;;;;;;;;4956471;29;20579;-47
2021/05/30 11:50:41;;;;;;;1.30;0.50;;;;;;;;;;4953678;29;20114;-45
2021/05/30 11:53:25;;;;;;;1.67;0.90;;;;;;;;;;4968833;28;20030;-46
2021/05/30 11:55:53;;;;;;;0.88;0.40;;;;;;;;;;4976292;28;20033;-47
2021/05/30 11:58:20;;;;;;;0.95;0.50;;;;;;;;;;4975802;28;20023;-46
2021/05/30 12:00:47;;;;;;;1.40;0.68;;;;;;;;;;4972054;28;20019;-42
2021/05/30 12:03:14;;;;;;;0.95;0.57;;;;;;;;;;4971498;28;20027;-46
2021/05/30 12:05:41;;;;;;;0.88;0.38;;;;;;;;;;4975738;28;20557;-48
2021/05/30 12:08:15;;;;;;;1.15;0.40;;;;;;;;;;4958318;28;20430;-46
2021/05/30 12:10:49;;;;;;;1.25;0.50;;;;;;;;;;4974293;28;20034;-46
2021/05/30 12:13:32;;;;;;;1.50;0.50;;;;;;;;;;4955412;28;20118;-48
2021/05/30 12:16:13;;;;;;;0.98;0.50;;;;;;;;;;4956707;29;20030;-48
2021/05/30 12:18:53;;;;;;;1.02;0.60;;;;;;;;;;4956253;29;20483;-48
2021/05/30 12:21:21;;;;;;;0.88;0.50;;;;;;;;;;4953389;29;20038;-44
2021/05/30 12:23:49;;;;;;;1.05;0.70;;;;;;;;;;4965191;28;20029;-46
2021/05/30 12:26:16;;;;;;;1.25;0.70;;;;;;;;;;4975526;28;20360;-46
2021/05/30 12:28:44;;;;;;;2.08;0.73;;;;;;;;;;4975540;28;20027;-47
2021/05/30 12:31:16;;;;;;;1.65;0.80;;;;;;;;;;4975136;28;20490;-46
2021/05/30 12:33:57;;;;;;;1.92;0.80;;;;;;;;;;4952920;28;20030;-47
2021/05/30 12:36:30;;;;;;;1.77;0.70;;;;;;;;;;4956243;29;20042;-50
2021/05/30 12:39:16;;;;;;;0.80;0.50;;;;;;;;;;4955953;29;20447;-47
2021/05/30 12:41:44;;;;;;;2.55;0.60;;;;;;;;;;4953543;28;20055;-46
2021/05/30 12:44:16;;;;;;;2.42;0.80;;;;;;;;;;4953417;29;20023;-47
2021/05/30 12:46:55;;;;;;;3.72;0.88;;;;;;;;;;4938621;29;20051;-46
2021/05/30 12:49:22;;;;;;;1.90;0.80;;;;;;;;;;4955460;29;20058;-46
2021/05/30 12:51:58;;;;;;;1.33;0.60;;;;;;;;;;4954328;29;20098;-44
2021/05/30 12:54:26;;;;;;;2.10;1.00;;;;;;;;;;4969134;28;20050;-48
2021/05/30 12:56:53;;;;;;;2.60;0.75;;;;;;;;;;4975272;28;20058;-47
2021/05/30 12:59:22;;;;;;;1.45;0.68;;;;;;;;;;4974945;28;20015;-46
2021/05/30 13:01:50;;;;;;;1.30;0.70;;;;;;;;;;4974838;28;20419;-48
2021/05/30 13:04:24;;;;;;;0.80;0.50;;;;;;;;;;4953259;28;20391;-47
2021/05/30 13:06:54;;;;;;;1.20;0.68;;;;;;;;;;4955291;29;20055;-48
2021/05/30 13:09:21;;;;;;;1.63;0.52;;;;;;;;;;4955065;29;20023;-47
2021/05/30 13:11:48;;;;;;;1.30;0.70;;;;;;;;;;4954949;29;20031;-47
2021/05/30 13:14:28;;;;;;;2.10;0.75;;;;;;;;;;4950062;29;20057;-46
2021/05/30 13:17:15;;;;;;;1.05;0.70;;;;;;;;;;4955455;29;20453;-47
2021/05/30 13:20:00;;;;;;;3.42;0.73;;;;;;;;;;4939221;29;20123;-48
2021/05/30 13:22:28;;;;;;;3.72;0.70;;;;;;;;;;4954013;29;20062;-43
2021/05/30 13:24:55;;;;;;;2.13;0.80;;;;;;;;;;4962431;28;20106;-48
2021/05/30 13:27:26;;;;;;;0.93;0.57;;;;;;;;;;4959604;28;20078;-46
2021/05/30 13:30:02;;;;;;;1.65;0.70;;;;;;;;;;4953605;29;20102;-43
2021/05/30 13:32:29;;;;;;;1.38;0.60;;;;;;;;;;4952047;29;20106;-46
2021/05/30 13:34:56;;;;;;;3.13;0.63;;;;;;;;;;4935392;29;20412;-47
2021/05/30 13:37:23;;;;;;;4.22;0.80;;;;;;;;;;4955101;29;20026;-46
2021/05/30 13:39:50;;;;;;;1.35;0.60;;;;;;;;;;4954646;29;20027;-45
2021/05/30 13:42:17;;;;;;;1.88;0.80;;;;;;;;;;4954583;29;20062;-46
2021/05/30 13:44:44;;;;;;;3.03;0.70;;;;;;;;;;4949130;28;20030;-47
2021/05/30 13:47:12;;;;;;;1.70;0.82;;;;;;;;;;4954323;29;20055;-46
2021/05/30 13:49:39;;;;;;;2.67;0.73;;;;;;;;;;4954534;29;20028;-47
2021/05/30 13:52:07;;;;;;;1.92;0.80;;;;;;;;;;4954490;29;20031;-47
2021/05/30 13:54:34;;;;;;;1.35;0.50;;;;;;;;;;4956619;28;20023;-47
2021/05/30 13:57:01;;;;;;;2.63;0.90;;;;;;;;;;4954250;28;20035;-48
2021/05/30 13:59:28;;;;;;;3.80;0.60;;;;;;;;;;4953815;29;20051;-48
2021/05/30 14:01:55;;;;;;;2.08;0.60;;;;;;;;;;4953656;29;20050;-47
2021/05/30 14:04:22;;;;;;;1.08;0.50;;;;;;;;;;4949069;29;20023;-47
2021/05/30 14:06:49;;;;;;;1.50;0.70;;;;;;;;;;4953767;29;20039;-45
2021/05/30 14:09:16;;;;;;;1.25;0.65;;;;;;;;;;4953877;29;20027;-47
2021/05/30 14:11:43;;;;;;;1.30;0.57;;;;;;;;;;4953355;29;20023;-49
2021/05/30 14:14:10;;;;;;;3.58;0.60;;;;;;;;;;4949371;29;20495;-46
2021/05/30 14:16:37;;;;;;;0.95;0.50;;;;;;;;;;4953186;29;20058;-47
2021/05/30 14:19:05;;;;;;;1.30;0.50;;;;;;;;;;4953896;29;20348;-43
2021/05/30 14:21:33;;;;;;;0.75;0.50;;;;;;;;;;4953682;29;20094;-45
2021/05/30 14:24:00;;;;;;;2.22;0.70;;;;;;;;;;4951834;29;20082;-42
2021/05/30 14:26:27;;;;;;;2.25;0.70;;;;;;;;;;4950493;28;20050;-47
2021/05/30 14:28:54;;;;;;;2.08;0.68;;;;;;;;;;4954078;29;20028;-47
2021/05/30 14:31:21;;;;;;;1.10;0.50;;;;;;;;;;4953583;29;20027;-44
2021/05/30 14:33:48;;;;;;;1.98;0.40;;;;;;;;;;4952218;29;20023;-46
2021/05/30 14:36:15;;;;;;;0.85;0.40;;;;;;;;;;4950849;28;20023;-47
2021/05/30 14:38:42;;;;;;;1.25;0.57;;;;;;;;;;4953372;29;20027;-49
2021/05/30 14:41:09;;;;;;;1.75;0.68;;;;;;;;;;4953547;29;20030;-46
2021/05/30 14:43:37;;;;;;;2.33;0.70;;;;;;;;;;4952966;29;20081;-48
2021/05/30 14:46:04;;;;;;;2.50;0.60;;;;;;;;;;4953787;28;20031;-45
2021/05/30 14:48:31;;;;;;;1.00;0.45;;;;;;;;;;4973261;28;20033;-45
2021/05/30 14:50:58;;;;;;;1.80;0.60;;;;;;;;;;4939906;29;20039;-45
2021/05/30 14:53:25;;;;;;;1.95;0.85;;;;;;;;;;4949405;29;20484;-48